METAR AND TAF INFORMATION
METAR FOR LGSY
ADDS - METARS form results

(2303 UTC 26 June 2019)
Data provider http://aviationweather.gov/metar/data/
 
Forecast for: LGSY (SKIROS , GR)
Text: TAF LGSY 262300Z 2700/2709 01015G28KT 9999 FEW020
Forecast period: 0000 to 0900 UTC 27 June 2019
Forecast type: FROM: standard forecast or significant change
Winds: from the N (10 degrees) at 17 MPH (15 knots; 7.7 m/s)
gusting to 32 MPH (28 knots; 14.4 m/s)
Visibility: 6 or more miles 10+ km)
Ceiling: at least 12,000 feet AGL
Clouds: few clouds at 2000 feet AGL
Weather: no significant weather forecast for this period

 ΧΑΡΤΗΣ ΑΕΡΟΔΡΟΜΙΟΥ

 RUNWAY INFORMATION
Διάδρομος 18 Runway length 9849 ft Runway width 98 ft
Runway elevation 14 ft Runway displaced threshold 541 ft Runway heading 176
Διάδρομος 36 Runway length 9849 ft Runway width 98 ft
Runway elevation 39 ft Runway displaced threshold 2625 ft Runway heading 356

 ΣΥΧΝΟΤΗΤΕΣ ΑΕΡΟΔΡΟΜΙΟΥ
Τύπος A/G Όνομα RDO Συχνότητα 563.7 MHZ
Τύπος APP Όνομα APP Συχνότητα 123.2 MHZ
Τύπος TWR Όνομα TWR Συχνότητα 123.2 MHZ

 AIRPORT NEAR NAVIGATION AIDS
Τύπος VOR-DME Όνομα Skiros Συχνότητα 116600 KHZ
Τύπος TACAN Όνομα Skyros Συχνότητα 116100 KHZ



Hellenic Air Force Virtual - All rights reserved 2019 - Powered by VAM